createdAt,value
2018-11-26T00:00:47.696Z,101500.68
2018-11-26T00:03:16.791Z,101504.00
2018-11-26T00:05:45.526Z,101504.10
2018-11-26T00:08:14.618Z,101497.54
2018-11-26T00:10:54.575Z,101506.81
2018-11-26T00:13:23.374Z,101503.39
2018-11-26T00:15:52.110Z,101506.09
2018-11-26T00:18:20.926Z,101505.92
2018-11-26T00:20:49.671Z,101506.27
2018-11-26T00:23:18.458Z,101508.13
2018-11-26T00:25:47.350Z,101509.34
2018-11-26T00:28:16.083Z,101515.08
2018-11-26T00:30:44.856Z,101510.78
2018-11-26T00:33:13.939Z,101516.13
2018-11-26T00:35:42.648Z,101513.68
2018-11-26T00:38:11.389Z,101515.83
2018-11-26T00:40:40.223Z,101510.88
2018-11-26T00:43:08.922Z,101500.79
2018-11-26T00:45:37.648Z,101493.78
2018-11-26T00:48:07.023Z,101480.95
2018-11-26T00:50:35.903Z,101487.78
2018-11-26T00:53:04.627Z,101493.69
2018-11-26T00:55:33.723Z,101491.04
2018-11-26T00:58:02.475Z,101484.53
2018-11-26T01:00:31.197Z,101489.60
2018-11-26T01:03:00.086Z,101490.00
2018-11-26T01:05:35.017Z,101488.80
2018-11-26T01:08:03.908Z,101485.93
2018-11-26T01:10:32.620Z,101484.83
2018-11-26T01:13:01.361Z,101486.87
2018-11-26T01:15:30.411Z,101488.30
2018-11-26T01:17:59.542Z,101488.08
2018-11-26T01:20:29.511Z,101487.02
2018-11-26T01:22:59.937Z,101491.37
2018-11-26T01:25:29.351Z,101496.71
2018-11-26T01:27:58.114Z,101494.45
2018-11-26T01:30:27.470Z,101485.98
2018-11-26T01:32:56.228Z,101488.97
2018-11-26T01:35:25.119Z,101481.40
2018-11-26T01:37:53.954Z,101485.27
2018-11-26T01:40:29.233Z,101485.36
2018-11-26T01:42:58.446Z,101487.08
2018-11-26T01:45:27.195Z,101485.45
2018-11-26T01:47:56.052Z,101491.03
2018-11-26T01:50:25.237Z,101491.40
2018-11-26T01:52:54.298Z,101488.86
2018-11-26T01:55:23.097Z,101492.13
2018-11-26T01:57:51.959Z,101490.46
2018-11-26T02:00:22.480Z,101485.05
2018-11-26T02:02:51.362Z,101485.39
2018-11-26T02:05:20.366Z,101482.25
2018-11-26T02:07:49.229Z,101479.33
2018-11-26T02:10:21.968Z,101473.83
2018-11-26T02:12:51.073Z,101468.76
2018-11-26T02:15:35.807Z,101466.80
2018-11-26T02:18:04.823Z,101469.63
2018-11-26T02:20:33.807Z,101465.51
2018-11-26T02:23:02.851Z,101465.08
2018-11-26T02:25:31.895Z,101473.01
2018-11-26T02:28:00.657Z,101475.41
2018-11-26T02:30:29.728Z,101467.87
2018-11-26T02:32:59.573Z,101467.93
2018-11-26T02:35:28.849Z,101469.73
2018-11-26T02:37:58.058Z,101474.73
2018-11-26T02:40:28.911Z,101486.12
2018-11-26T02:42:58.830Z,101483.92
2018-11-26T02:45:28.040Z,101478.40
2018-11-26T02:47:57.081Z,101483.39
2018-11-26T02:50:26.024Z,101481.09
2018-11-26T02:52:55.006Z,101482.80
2018-11-26T02:55:23.801Z,101478.30
2018-11-26T02:57:52.787Z,101481.78
2018-11-26T03:00:21.735Z,101474.19
2018-11-26T03:02:50.769Z,101482.52
2018-11-26T03:05:25.602Z,101484.57
2018-11-26T03:07:54.757Z,101489.02
2018-11-26T03:10:23.836Z,101485.98
2018-11-26T03:12:53.194Z,101481.09
2018-11-26T03:15:22.158Z,101492.14
2018-11-26T03:17:55.222Z,101486.13
2018-11-26T03:20:24.048Z,101492.20
2018-11-26T03:22:52.802Z,101491.55
2018-11-26T03:25:22.272Z,101484.56
2018-11-26T03:27:51.347Z,101483.73
2018-11-26T03:30:21.502Z,101484.36
2018-11-26T03:32:50.695Z,101476.64
2018-11-26T03:35:20.219Z,101475.91
2018-11-26T03:37:49.066Z,101477.33
2018-11-26T03:40:18.037Z,101483.39
2018-11-26T03:42:46.988Z,101481.82
2018-11-26T03:45:17.810Z,101489.64
2018-11-26T03:47:46.675Z,101492.59
2018-11-26T03:50:15.637Z,101497.56
2018-11-26T03:52:44.964Z,101494.58
2018-11-26T03:55:14.420Z,101506.67
2018-11-26T03:57:43.258Z,101506.27
2018-11-26T04:00:14.144Z,101505.84
2018-11-26T04:02:43.260Z,101506.48
2018-11-26T04:05:12.579Z,101512.02
2018-11-26T04:07:41.633Z,101511.03
2018-11-26T04:10:11.602Z,101508.09
2018-11-26T04:12:45.478Z,101505.64
2018-11-26T04:15:15.524Z,101498.99
2018-11-26T04:17:44.283Z,101502.08
2018-11-26T04:20:17.783Z,101497.58
2018-11-26T04:22:46.541Z,101497.86
2018-11-26T04:25:15.287Z,101499.45
2018-11-26T04:27:44.044Z,101494.90
2018-11-26T04:30:13.347Z,101503.89
2018-11-26T04:32:42.084Z,101503.84
2018-11-26T04:35:11.017Z,101499.70
2018-11-26T04:37:39.765Z,101507.14
2018-11-26T04:40:10.532Z,101503.84
2018-11-26T04:42:39.536Z,101506.03
2018-11-26T04:45:09.699Z,101510.89
2018-11-26T04:47:38.645Z,101511.98
2018-11-26T04:50:11.797Z,101506.75
2018-11-26T04:52:40.886Z,101506.64
2018-11-26T04:55:10.825Z,101503.27
2018-11-26T04:57:42.564Z,101499.53
2018-11-26T05:00:10.699Z,101509.39
2018-11-26T05:02:39.569Z,101496.70
2018-11-26T05:05:09.259Z,101507.24
2018-11-26T05:07:38.174Z,101498.85
2018-11-26T05:10:10.180Z,101503.94
2018-11-26T05:12:38.893Z,101498.91
2018-11-26T05:15:09.492Z,101505.53
2018-11-26T05:17:39.072Z,101499.73
2018-11-26T05:20:12.733Z,101503.12
2018-11-26T05:22:41.552Z,101505.56
2018-11-26T05:25:11.096Z,101507.31
2018-11-26T05:27:39.967Z,101502.47
2018-11-26T05:30:13.058Z,101511.13
2018-11-26T05:32:42.034Z,101510.17
2018-11-26T05:35:11.804Z,101508.18
2018-11-26T05:37:40.616Z,101512.08
2018-11-26T05:40:10.859Z,101512.18
2018-11-26T05:42:39.574Z,101514.94
2018-11-26T05:45:11.079Z,101517.23
2018-11-26T05:47:39.801Z,101523.73
2018-11-26T05:50:10.904Z,101519.72
2018-11-26T05:52:40.374Z,101517.84
2018-11-26T05:55:11.450Z,101522.58
2018-11-26T05:57:40.157Z,101518.22
2018-11-26T06:00:13.612Z,101527.47
2018-11-26T06:02:42.344Z,101527.86
2018-11-26T06:05:11.215Z,101531.17
2018-11-26T06:07:40.022Z,101532.78
2018-11-26T06:10:09.888Z,101530.88
2018-11-26T06:12:39.134Z,101540.48
2018-11-26T06:15:11.719Z,101538.00
2018-11-26T06:17:40.650Z,101546.16
2018-11-26T06:20:12.246Z,101546.77
2018-11-26T06:22:43.037Z,101542.86
2018-11-26T06:25:19.788Z,101541.81
2018-11-26T06:27:48.789Z,101542.33
2018-11-26T06:30:18.671Z,101550.23
2018-11-26T06:32:47.457Z,101539.70
2018-11-26T06:35:23.435Z,101543.77
2018-11-26T06:37:52.201Z,101547.50
2018-11-26T06:40:21.039Z,101552.00
2018-11-26T06:42:49.799Z,101552.63
2018-11-26T06:45:21.155Z,101549.98
2018-11-26T06:47:49.867Z,101554.82
2018-11-26T06:50:19.684Z,101550.86
2018-11-26T06:52:48.700Z,101551.70
2018-11-26T06:55:18.628Z,101556.88
2018-11-26T06:57:47.401Z,101553.34
2018-11-26T07:00:18.226Z,101551.58
2018-11-26T07:02:46.939Z,101558.09
2018-11-26T07:05:17.781Z,101556.63
2018-11-26T07:07:46.674Z,101559.35
2018-11-26T07:10:15.832Z,101551.38
2018-11-26T07:12:44.600Z,101557.59
2018-11-26T07:15:16.650Z,101550.59
2018-11-26T07:17:45.355Z,101557.78
2018-11-26T07:20:15.376Z,101557.16
2018-11-26T07:22:44.269Z,101556.41
2018-11-26T07:25:13.970Z,101559.00
2018-11-26T07:27:43.328Z,101561.88
2018-11-26T07:30:16.391Z,101561.88
2018-11-26T07:32:45.289Z,101560.77
2018-11-26T07:35:14.526Z,101564.63
2018-11-26T07:37:43.566Z,101560.72
2018-11-26T07:40:14.799Z,101567.55
2018-11-26T07:42:47.440Z,101558.40
2018-11-26T07:45:16.266Z,101559.81
2018-11-26T07:47:44.985Z,101563.59
2018-11-26T07:50:17.463Z,101567.16
2018-11-26T07:52:46.242Z,101568.25
2018-11-26T07:55:17.151Z,101566.23
2018-11-26T07:57:46.395Z,101570.37
2018-11-26T08:00:17.398Z,101574.86
2018-11-26T08:02:46.685Z,101574.24
2018-11-26T08:05:17.062Z,101572.84
2018-11-26T08:07:45.831Z,101576.97
2018-11-26T08:10:15.630Z,101580.80
2018-11-26T08:12:45.648Z,101576.75
2018-11-26T08:15:17.290Z,101582.29
2018-11-26T08:17:46.104Z,101586.78
2018-11-26T08:20:14.874Z,101582.25
2018-11-26T08:22:43.626Z,101589.73
2018-11-26T08:25:14.566Z,101586.11
2018-11-26T08:27:44.123Z,101590.87
2018-11-26T08:30:13.982Z,101598.48
2018-11-26T08:32:44.334Z,101597.22
2018-11-26T08:35:15.338Z,101591.48
2018-11-26T08:37:49.558Z,101594.04
2018-11-26T08:40:23.646Z,101590.03
2018-11-26T08:42:57.814Z,101595.66
2018-11-26T08:45:32.060Z,101591.12
2018-11-26T08:48:06.048Z,101597.23
2018-11-26T08:50:34.907Z,101589.41
2018-11-26T08:53:03.614Z,101594.16
2018-11-26T08:55:32.475Z,101593.09
2018-11-26T08:58:01.245Z,101596.52
2018-11-26T09:00:30.296Z,101595.20
2018-11-26T09:08:07.896Z,101588.94
2018-11-26T09:10:36.711Z,101587.42
2018-11-26T09:13:06.136Z,101589.14
2018-11-26T09:15:35.963Z,101591.19
2018-11-26T09:18:04.784Z,101593.68
2018-11-26T09:20:33.559Z,101595.69
2018-11-26T09:23:02.349Z,101596.74
2018-11-26T09:25:32.343Z,101603.86
2018-11-26T09:28:01.169Z,101600.45
2018-11-26T09:30:31.016Z,101605.83
2018-11-26T09:33:00.555Z,101605.66
2018-11-26T09:35:30.347Z,101608.64
2018-11-26T09:37:59.189Z,101605.81
2018-11-26T09:40:28.837Z,101610.41
2018-11-26T09:42:57.621Z,101606.59
2018-11-26T09:45:26.563Z,101610.05
2018-11-26T09:47:55.388Z,101605.88
2018-11-26T09:50:24.599Z,101604.11
2018-11-26T09:52:53.915Z,101606.41
2018-11-26T09:55:23.407Z,101600.56
2018-11-26T09:57:52.292Z,101599.69
2018-11-26T10:00:21.239Z,101600.47
2018-11-26T10:02:51.119Z,101594.73
2018-11-26T10:05:25.218Z,101596.67
2018-11-26T10:07:53.973Z,101594.72
2018-11-26T10:10:22.774Z,101587.06
2018-11-26T10:12:52.598Z,101589.36
2018-11-26T10:15:22.485Z,101586.06
2018-11-26T10:17:51.599Z,101583.36
2018-11-26T10:20:20.587Z,101582.17
2018-11-26T10:22:50.213Z,101582.84
2018-11-26T10:25:20.721Z,101582.07
2018-11-26T10:27:49.551Z,101580.80
2018-11-26T10:30:19.799Z,101580.82
2018-11-26T10:32:50.229Z,101572.80
2018-11-26T10:35:19.663Z,101575.63
2018-11-26T10:37:48.613Z,101570.78
2018-11-26T10:40:20.899Z,101571.97
2018-11-26T10:42:49.655Z,101571.28
2018-11-26T10:45:19.423Z,101566.34
2018-11-26T10:47:48.323Z,101563.27
2018-11-26T10:50:18.303Z,101567.48
2018-11-26T10:52:50.442Z,101566.16
2018-11-26T10:55:26.658Z,101564.59
2018-11-26T10:57:55.961Z,101562.72
2018-11-26T11:00:29.965Z,101565.39
2018-11-26T11:02:58.856Z,101564.88
2018-11-26T11:05:27.672Z,101567.95
2018-11-26T11:07:56.402Z,101566.15
2018-11-26T11:10:33.238Z,101557.11
2018-11-26T11:13:02.064Z,101563.11
2018-11-26T11:15:30.782Z,101565.56
2018-11-26T11:18:00.910Z,101567.23
2018-11-26T11:20:30.646Z,101566.91
2018-11-26T11:23:00.456Z,101566.31
2018-11-26T11:25:29.373Z,101559.20
2018-11-26T11:27:58.148Z,101556.47
2018-11-26T11:30:28.766Z,101554.78
2018-11-26T11:32:57.706Z,101560.20
2018-11-26T11:35:26.631Z,101557.80
2018-11-26T11:37:55.800Z,101561.78
2018-11-26T11:40:26.907Z,101559.89
2018-11-26T11:42:55.834Z,101558.25
2018-11-26T11:45:25.105Z,101556.85
2018-11-26T11:47:54.080Z,101553.27
2018-11-26T11:50:23.144Z,101554.53
2018-11-26T11:52:52.238Z,101555.41
2018-11-26T11:55:23.384Z,101551.16
2018-11-26T11:57:52.612Z,101551.05
2018-11-26T12:00:35.402Z,101548.97
2018-11-26T12:03:06.777Z,101549.98
2018-11-26T12:05:35.615Z,101548.10
2018-11-26T12:08:04.666Z,101544.63
2018-11-26T12:10:34.801Z,101548.27
2018-11-26T12:13:03.594Z,101547.38
2018-11-26T12:15:32.682Z,101548.64
2018-11-26T12:18:01.535Z,101551.29
2018-11-26T12:20:30.619Z,101549.27
2018-11-26T12:22:59.814Z,101551.05
2018-11-26T12:25:28.582Z,101546.06
2018-11-26T12:27:57.456Z,101549.65
2018-11-26T12:30:27.693Z,101546.25
2018-11-26T12:32:56.913Z,101546.68
2018-11-26T12:35:25.763Z,101546.44
2018-11-26T12:37:54.584Z,101551.74
2018-11-26T12:40:25.329Z,101547.33
2018-11-26T12:42:56.911Z,101547.96
2018-11-26T12:45:28.714Z,101546.43
2018-11-26T12:47:57.807Z,101546.82
2018-11-26T12:50:26.725Z,101552.95
2018-11-26T12:52:55.521Z,101554.53
2018-11-26T12:55:25.024Z,101555.97
2018-11-26T12:57:54.803Z,101561.36
2018-11-26T13:00:24.884Z,101557.80
2018-11-26T13:02:56.956Z,101564.74
2018-11-26T13:05:25.835Z,101559.89
2018-11-26T13:07:54.668Z,101564.38
2018-11-26T13:10:23.998Z,101561.78
2018-11-26T13:12:53.537Z,101564.27
2018-11-26T13:15:24.417Z,101561.41
2018-11-26T13:17:53.272Z,101558.82
2018-11-26T13:20:26.878Z,101559.18
2018-11-26T13:22:55.822Z,101562.61
2018-11-26T13:25:25.782Z,101565.75
2018-11-26T13:27:55.984Z,101566.56
2018-11-26T13:30:30.452Z,101560.78
2018-11-26T13:33:00.668Z,101567.22
2018-11-26T13:35:29.455Z,101566.40
2018-11-26T13:37:59.025Z,101560.45
2018-11-26T13:40:28.060Z,101561.72
2018-11-26T13:42:56.843Z,101571.26
2018-11-26T13:45:32.293Z,101570.38
2018-11-26T13:48:01.079Z,101576.67
2018-11-26T13:50:32.650Z,101571.94
2018-11-26T13:53:02.030Z,101573.59
2018-11-26T13:55:30.881Z,101573.91
2018-11-26T13:58:00.943Z,101572.64
2018-11-26T14:00:31.133Z,101573.70
2018-11-26T14:03:00.795Z,101573.84
2018-11-26T14:05:29.862Z,101576.50
2018-11-26T14:07:59.312Z,101575.29
2018-11-26T14:10:28.760Z,101573.59
2018-11-26T14:13:03.775Z,101571.62
2018-11-26T14:15:33.037Z,101567.14
2018-11-26T14:18:01.963Z,101565.75
2018-11-26T14:20:30.837Z,101577.88
2018-11-26T14:22:59.888Z,101585.50
2018-11-26T14:25:28.797Z,101586.80
2018-11-26T14:27:57.551Z,101583.28
2018-11-26T14:30:27.705Z,101587.70
2018-11-26T14:32:56.681Z,101585.00
2018-11-26T14:35:25.536Z,101592.11
2018-11-26T14:37:57.503Z,101596.16
2018-11-26T14:40:31.868Z,101592.19
2018-11-26T14:43:00.851Z,101595.05
2018-11-26T14:45:29.620Z,101595.13
2018-11-26T14:47:58.850Z,101602.99
2018-11-26T14:50:27.760Z,101596.48
2018-11-26T14:52:56.679Z,101593.72
2018-11-26T14:55:28.923Z,101603.55
2018-11-26T14:57:57.871Z,101604.05
2018-11-26T15:00:26.712Z,101604.81
2018-11-26T15:02:55.533Z,101602.79
2018-11-26T15:05:24.616Z,101607.58
2018-11-26T15:07:53.454Z,101612.00
2018-11-26T15:10:23.724Z,101611.11
2018-11-26T15:12:53.059Z,101616.13
2018-11-26T15:15:25.015Z,101613.44
2018-11-26T15:17:53.942Z,101615.42
2018-11-26T15:20:25.086Z,101617.50
2018-11-26T15:22:55.174Z,101618.11
2018-11-26T15:25:24.966Z,101621.53
2018-11-26T15:27:55.147Z,101624.66
2018-11-26T15:30:24.101Z,101628.14
2018-11-26T15:32:53.052Z,101627.47
2018-11-26T15:35:23.105Z,101625.25
2018-11-26T15:37:51.888Z,101625.54
2018-11-26T15:40:22.633Z,101633.22
2018-11-26T15:42:51.488Z,101627.84
2018-11-26T15:45:23.423Z,101638.21
2018-11-26T15:47:53.069Z,101632.80
2018-11-26T15:50:21.816Z,101636.41
2018-11-26T15:52:50.790Z,101636.30
2018-11-26T15:55:20.679Z,101636.70
2018-11-26T15:57:49.541Z,101642.49
2018-11-26T16:00:24.747Z,101637.36
2018-11-26T16:02:53.909Z,101648.08
2018-11-26T16:05:26.021Z,101641.28
2018-11-26T16:08:03.078Z,101644.43
2018-11-26T16:10:31.923Z,101646.58
2018-11-26T16:13:02.143Z,101640.46
2018-11-26T16:15:34.045Z,101648.45
2018-11-26T16:18:03.660Z,101640.03
2018-11-26T16:20:32.492Z,101644.16
2018-11-26T16:23:01.612Z,101646.80
2018-11-26T16:25:30.973Z,101646.70
2018-11-26T16:27:59.754Z,101643.17
2018-11-26T16:30:29.205Z,101650.67
2018-11-26T16:32:58.867Z,101652.26
2018-11-26T16:35:30.217Z,101661.74
2018-11-26T16:37:59.094Z,101655.81
2018-11-26T16:40:27.975Z,101656.95
2018-11-26T16:42:56.835Z,101661.27
2018-11-26T16:45:26.920Z,101664.93
2018-11-26T16:47:56.585Z,101664.05
2018-11-26T16:50:27.705Z,101668.08
2018-11-26T16:52:56.443Z,101671.59
2018-11-26T16:55:25.182Z,101677.34
2018-11-26T16:57:54.335Z,101683.45
2018-11-26T17:00:24.296Z,101690.83
2018-11-26T17:02:54.251Z,101689.88
2018-11-26T17:05:25.521Z,101691.84
2018-11-26T17:07:54.233Z,101691.19
2018-11-26T17:10:22.977Z,101693.27
2018-11-26T17:12:51.791Z,101692.03
2018-11-26T17:15:20.571Z,101685.96
2018-11-26T17:17:49.613Z,101690.08
2018-11-26T17:20:18.793Z,101690.86
2018-11-26T17:22:47.572Z,101687.81
2018-11-26T17:25:17.343Z,101692.23
2018-11-26T17:27:46.516Z,101699.39
2018-11-26T17:30:25.648Z,101699.05
2018-11-26T17:33:00.559Z,101706.61
2018-11-26T17:35:29.976Z,101706.16
2018-11-26T17:37:58.735Z,101708.50
2018-11-26T17:40:28.067Z,101710.36
2018-11-26T17:42:57.013Z,101714.03
2018-11-26T17:45:26.379Z,101711.88
2018-11-26T17:47:57.448Z,101710.66
2018-11-26T17:50:32.763Z,101706.08
2018-11-26T17:53:01.646Z,101703.09
2018-11-26T17:55:31.211Z,101707.59
2018-11-26T17:57:59.964Z,101712.60
2018-11-26T18:00:30.561Z,101708.13
2018-11-26T18:02:59.406Z,101718.23
2018-11-26T18:05:29.528Z,101718.28
2018-11-26T18:08:17.567Z,101723.36
2018-11-26T18:10:46.364Z,101722.17
2018-11-26T18:13:15.145Z,101724.63
2018-11-26T18:15:44.073Z,101728.06
2018-11-26T18:18:16.403Z,101729.62
2018-11-26T18:20:45.579Z,101726.88
2018-11-26T18:23:14.511Z,101723.07
2018-11-26T18:25:43.628Z,101732.17
2018-11-26T18:28:13.914Z,101734.98
2018-11-26T18:30:46.901Z,101738.59
2018-11-26T18:33:16.143Z,101742.87
2018-11-26T18:35:45.597Z,101739.38
2018-11-26T18:38:14.392Z,101733.07
2018-11-26T18:40:44.628Z,101731.64
2018-11-26T18:43:13.374Z,101736.23
2018-11-26T18:45:42.852Z,101737.27
2018-11-26T18:48:12.801Z,101743.64
2018-11-26T18:50:41.550Z,101745.25
2018-11-26T18:53:10.241Z,101746.69
2018-11-26T18:55:40.293Z,101749.77
2018-11-26T18:58:09.113Z,101753.59
2018-11-26T19:00:40.326Z,101753.45
2018-11-26T19:03:09.186Z,101755.66
2018-11-26T19:05:37.904Z,101754.28
2018-11-26T19:08:07.246Z,101755.21
2018-11-26T19:10:37.479Z,101755.16
2018-11-26T19:13:22.665Z,101762.61
2018-11-26T19:15:52.423Z,101764.92
2018-11-26T19:18:23.519Z,101770.27
2018-11-26T19:20:52.664Z,101769.72
2018-11-26T19:23:21.963Z,101768.98
2018-11-26T19:25:51.781Z,101771.23
2018-11-26T19:28:20.698Z,101775.98
2018-11-26T19:30:49.501Z,101769.52
2018-11-26T19:33:18.267Z,101769.09
2018-11-26T19:35:47.072Z,101760.75
2018-11-26T19:38:16.002Z,101764.97
2018-11-26T19:40:44.790Z,101765.46
2018-11-26T19:43:13.801Z,101768.83
2018-11-26T19:45:42.735Z,101766.23
2018-11-26T19:48:11.583Z,101771.05
2018-11-26T19:50:40.581Z,101772.02
2018-11-26T19:53:11.718Z,101766.73
2018-11-26T19:55:41.692Z,101770.36
2018-11-26T19:58:10.865Z,101769.91
2018-11-26T20:00:40.134Z,101770.41
2018-11-26T20:03:20.494Z,101779.52
2018-11-26T20:06:10.490Z,101778.58
2018-11-26T20:08:39.732Z,101779.07
2018-11-26T20:11:08.668Z,101779.77
2018-11-26T20:13:38.251Z,101787.11
2018-11-26T20:16:11.996Z,101781.22
2018-11-26T20:18:40.902Z,101785.14
2018-11-26T20:21:09.648Z,101784.25
2018-11-26T20:23:38.437Z,101788.18
2018-11-26T20:26:07.665Z,101787.34
2018-11-26T20:28:36.523Z,101790.30
2018-11-26T20:31:05.720Z,101793.38
2018-11-26T20:33:34.459Z,101799.45
2018-11-26T20:36:03.253Z,101802.09
2018-11-26T20:38:32.899Z,101808.23
2018-11-26T20:41:01.768Z,101811.07
2018-11-26T20:43:31.507Z,101810.58
2018-11-26T20:46:00.452Z,101810.14
2018-11-26T20:48:30.549Z,101810.41
2018-11-26T20:50:58.092Z,101812.54
2018-11-26T20:53:28.321Z,101815.23
2018-11-26T20:55:57.271Z,101818.76
2018-11-26T20:58:26.263Z,101817.92
2018-11-26T21:00:55.738Z,101824.00
2018-11-26T21:03:24.668Z,101820.62
2018-11-26T21:05:55.030Z,101819.46
2018-11-26T21:08:23.937Z,101827.44
2018-11-26T21:10:54.228Z,101831.77
2018-11-26T21:13:23.128Z,101830.57
2018-11-26T21:15:53.820Z,101835.50
2018-11-26T21:18:22.727Z,101839.91
2018-11-26T21:20:52.051Z,101843.36
2018-11-26T21:23:22.482Z,101847.33
2018-11-26T21:25:51.521Z,101852.38
2018-11-26T21:28:20.304Z,101854.94
2018-11-26T21:30:52.122Z,101854.69
2018-11-26T21:33:18.188Z,101855.80
2018-11-26T21:35:47.205Z,101858.81
2018-11-26T21:38:16.308Z,101861.02
2018-11-26T21:40:45.478Z,101857.09
2018-11-26T21:43:14.213Z,101857.05
2018-11-26T21:45:59.560Z,101857.94
2018-11-26T21:48:28.553Z,101862.09
2018-11-26T21:50:57.349Z,101858.88
2018-11-26T21:53:26.303Z,101857.53
2018-11-26T21:55:55.271Z,101862.34
2018-11-26T21:58:24.049Z,101865.93
2018-11-26T22:00:55.216Z,101867.04
2018-11-26T22:03:24.050Z,101868.95
2018-11-26T22:05:52.900Z,101866.97
2018-11-26T22:08:22.089Z,101869.09
2018-11-26T22:10:50.932Z,101877.52
2018-11-26T22:13:21.220Z,101878.88
2018-11-26T22:15:50.093Z,101880.67
2018-11-26T22:18:18.903Z,101890.02
2018-11-26T22:20:47.816Z,101886.57
2018-11-26T22:23:16.883Z,101883.89
2018-11-26T22:25:45.818Z,101880.41
2018-11-26T22:28:14.629Z,101887.05
2018-11-26T22:30:43.584Z,101886.94
2018-11-26T22:33:12.369Z,101887.05
2018-11-26T22:35:41.142Z,101881.83
2018-11-26T22:38:09.985Z,101888.40
2018-11-26T22:40:38.732Z,101886.61
2018-11-26T22:43:07.514Z,101890.53
2018-11-26T22:45:36.400Z,101892.70
2018-11-26T22:48:08.784Z,101894.45
2018-11-26T22:50:38.655Z,101893.23
2018-11-26T22:53:08.581Z,101900.41
2018-11-26T22:55:37.312Z,101900.45
2018-11-26T22:58:08.107Z,101892.49
2018-11-26T23:00:41.573Z,101894.56
2018-11-26T23:03:11.254Z,101894.59
2018-11-26T23:05:40.012Z,101898.59
2018-11-26T23:08:08.858Z,101898.66
2018-11-26T23:10:37.687Z,101901.05
2018-11-26T23:13:07.093Z,101902.52
2018-11-26T23:15:35.869Z,101902.52
2018-11-26T23:18:04.654Z,101903.75
2018-11-26T23:20:33.396Z,101908.63
2018-11-26T23:23:02.153Z,101911.67
2018-11-26T23:25:32.083Z,101909.97
2018-11-26T23:28:01.759Z,101908.27
2018-11-26T23:30:31.145Z,101911.41
2018-11-26T23:33:02.170Z,101912.73
2018-11-26T23:35:31.825Z,101914.94
2018-11-26T23:38:00.536Z,101917.60
2018-11-26T23:40:29.308Z,101922.03
2018-11-26T23:42:58.048Z,101923.34
2018-11-26T23:45:27.794Z,101924.73
2018-11-26T23:47:56.586Z,101926.48
2018-11-26T23:50:25.391Z,101923.88
2018-11-26T23:52:54.176Z,101918.34
2018-11-26T23:55:24.196Z,101916.63
2018-11-26T23:57:52.899Z,101922.79
